Home > Products > Valid Products > TAF

000
FTUS41 KILN 290900 AAA
TAFCMH
TAF AMD
KCMH 290922Z 2909/3006 15010KT P6SM OVC200
     FM291100 17011KT P6SM SCT080 OVC120
      TEMPO 2911/2913 5SM -FZRA BKN080
     FM291700 20015G25KT P6SM VCSH BKN025 OVC120
     FM292100 27017G27KT P6SM OVC009
     FM300300 29015G23KT P6SM OVC012=



000
FTUS41 KILN 290900 AAA
TAFLCK
TAF AMD
KLCK 290922Z 2909/3006 15008KT P6SM OVC200
     FM291100 17011KT P6SM SCT080 OVC120
      TEMPO 2911/2913 5SM -FZRA BKN080
     FM291700 21015G25KT P6SM VCSH BKN025 OVC120
     FM292100 26017G27KT P6SM OVC009
     FM300300 29015G23KT P6SM OVC012=



000
FTUS41 KILN 290900 AAA
TAFDAY
TAF AMD
KDAY 290916Z 2909/3006 18015G23KT P6SM SCT080 OVC120
      TEMPO 2910/2911 -SHRA BKN080
     FM291600 21018G28KT P6SM VCSH BKN018 OVC120
     FM291900 28018G28KT P6SM OVC009
     FM300000 29016G24KT P6SM OVC012=



000
FTUS41 KILN 290900 AAA
TAFILN
TAF AMD
KILN 290916Z 2909/3006 17014KT P6SM SCT080 OVC120
      TEMPO 2910/2912 5SM -SHRA BKN080
     FM291700 21016G26KT P6SM VCSH BKN018 OVC120
     FM292000 26017G27KT P6SM OVC009
     FM300100 29015G23KT P6SM OVC012=



000
FTUS41 KILN 290800 AAA
TAFLUK
TAF AMD
KLUK 290856Z 2909/3006 19010KT P6SM SCT080 OVC150
      TEMPO 2909/2911 5SM -SHRA BKN080
     FM291600 22014G24KT P6SM BKN025 OVC150
     FM291900 27015G25KT P6SM OVC015
     FM300200 29012KT P6SM OVC018=



000
FTUS41 KILN 290800 AAA
TAFCVG
TAF AMD
KCVG 290856Z 2909/3012 18012KT P6SM SCT080 OVC150
      TEMPO 2909/2911 5SM -SHRA BKN080
     FM291600 21014G24KT P6SM BKN022 OVC150
     FM291900 28015G25KT P6SM OVC012
     FM300200 30012KT P6SM OVC015
     FM300900 32011KT P6SM OVC022=



000
FTUS41 KILN 290500
TAFCVG
TAF
KCVG 290537Z 2906/3012 16011KT P6SM OVC200
     FM291000 18012KT P6SM SCT060 OVC150
      TEMPO 2911/2913 5SM -SHRA BKN060
     FM291600 21014G24KT P6SM BKN022 OVC150
     FM291900 28015G25KT P6SM OVC012
     FM300200 30012KT P6SM OVC015
     FM300900 32011KT P6SM OVC022=



000
FTUS41 KILN 290500
TAFLCK
TAF
KLCK 290537Z 2906/3006 15008KT P6SM OVC200
     FM291100 17011KT P6SM BKN060 OVC120
      TEMPO 2913/2916 5SM -SHRA
     FM291700 21015G25KT P6SM VCSH BKN025 OVC120
     FM292100 26017G27KT P6SM OVC009
     FM300300 29015G23KT P6SM OVC012=



000
FTUS41 KILN 290500
TAFCMH
TAF
KCMH 290537Z 2906/3006 15010KT P6SM OVC200
     FM291100 17011KT P6SM BKN060 OVC120
      TEMPO 2913/2916 5SM -SHRA
     FM291700 20015G25KT P6SM VCSH BKN025 OVC120
     FM292100 27017G27KT P6SM OVC009
     FM300300 29015G23KT P6SM OVC012=



000
FTUS41 KILN 290500
TAFILN
TAF
KILN 290537Z 2906/3006 16012KT P6SM OVC200
     FM291000 17014KT P6SM BKN060 OVC120
      TEMPO 2913/2915 5SM -SHRA
     FM291700 21016G26KT P6SM VCSH BKN018 OVC120
     FM292000 26017G27KT P6SM OVC009
     FM300100 29015G23KT P6SM OVC012=



000
FTUS41 KILN 290500
TAFLUK
TAF
KLUK 290537Z 2906/3006 17007KT P6SM OVC200
     FM291000 19010KT P6SM SCT060 OVC150
      TEMPO 2911/2913 5SM -SHRA BKN060
     FM291600 22014G24KT P6SM BKN025 OVC150
     FM291900 27015G25KT P6SM OVC015
     FM300200 29012KT P6SM OVC018=



000
FTUS41 KILN 290500
TAFDAY
TAF
KDAY 290537Z 2906/3006 16014KT P6SM OVC200
     FM291000 18015G23KT P6SM BKN060 OVC120
      TEMPO 2912/2914 5SM -SHRA
     FM291600 21018G28KT P6SM VCSH BKN018 OVC120
     FM291900 28018G28KT P6SM OVC009
     FM300000 29016G24KT P6SM OVC012=



000
FTUS41 KILN 290300 AAA
TAFCMH
TAF AMD
KCMH 290351Z 2904/2924 13008KT P6SM FEW200 OVC250
     FM291200 15009KT P6SM VCSH SCT025 BKN060 OVC120
      TEMPO 2912/2914 4SM -FZRA OVC025
     FM291500 19011G20KT P6SM -RA SCT025 OVC040
     FM291700 20013G21KT 4SM -RA BR SCT010 OVC025
     FM292000 25017G27KT P6SM VCSH OVC025=



000
FTUS41 KILN 290300 AAA
TAFLUK
TAF AMD
KLUK 290351Z 2904/2924 19003KT P6SM FEW200 OVC250
     FM291000 16007KT P6SM VCSH BKN060 OVC120
     FM291300 20011G20KT P6SM -RA SCT025 OVC040
     FM291500 21011G19KT 4SM -RA BR OVC020
     FM291900 27014G24KT P6SM VCSH OVC028=



000
FTUS41 KILN 290300 AAA
TAFILN
TAF AMD
KILN 290351Z 2904/2924 15009KT P6SM SCT180 OVC250
     FM291100 17010KT P6SM VCSH BKN060 OVC120
     FM291300 20013G20KT P6SM -RA SCT025 OVC040
     FM291500 21015G21KT 4SM -RA BR SCT010 OVC025
     FM291900 28019G30KT P6SM VCSH OVC025=



000
FTUS41 KILN 290300 AAA
TAFDAY
TAF AMD
KDAY 290351Z 2904/2924 14010KT P6SM BKN180 OVC250
     FM290900 17010KT P6SM VCSH BKN060 OVC120
     FM291200 20011G20KT P6SM -RA SCT025 OVC040
     FM291400 20016G23KT 4SM -RA BR SCT010 OVC025
     FM291900 28020G32KT P6SM VCSH OVC025=



000
FTUS41 KILN 290300 AAA
TAFCVG
TAF AMD
KCVG 290351Z 2904/3006 14011KT P6SM FEW200 OVC250
     FM291000 17010KT P6SM VCSH BKN060 OVC120
     FM291300 19013G20KT P6SM -RA SCT025 OVC040
     FM291500 21013G21KT 4SM -RA BR SCT010 OVC020
     FM291900 27015G25KT P6SM VCSH OVC025
     FM300100 30012KT P6SM VCSH OVC025=



000
FTUS41 KILN 290300 AAA
TAFLCK
TAF AMD
KLCK 290351Z 2904/2924 14003KT P6SM FEW200 OVC250
     FM291200 14008KT P6SM VCSH SCT025 BKN060 OVC120
      TEMPO 2912/2914 4SM -FZRA OVC025
     FM291500 19012G20KT P6SM -RA SCT025 OVC040
     FM291700 20014G21KT 4SM -RA BR SCT010 OVC025
     FM292000 25017G27KT P6SM VCSH OVC025=



000
FTUS41 KILN 282300
TAFLCK
TAF
KLCK 282340Z 2900/2924 07003KT P6SM OVC200
     FM291200 14008KT P6SM VCSH SCT025 BKN060 OVC120
      TEMPO 2912/2914 4SM -FZRA OVC025
     FM291500 19012G20KT P6SM -RA SCT025 OVC040
     FM291700 20014G21KT 4SM -RA BR SCT010 OVC025
     FM292000 25017G27KT P6SM VCSH OVC025=



000
FTUS41 KILN 282300
TAFCVG
TAF
KCVG 282340Z 2900/3006 13008KT P6SM FEW200 OVC300
     FM291000 17010KT P6SM VCSH BKN060 OVC120
     FM291300 19013G20KT P6SM -RA SCT025 OVC040
     FM291500 21013G21KT 4SM -RA BR SCT010 OVC020
     FM291900 27015G25KT P6SM VCSH OVC025
     FM300100 30012KT P6SM VCSH OVC025=



000
FTUS41 KILN 282300
TAFLUK
TAF
KLUK 282340Z 2900/2924 13003KT P6SM OVC250
     FM291000 16007KT P6SM VCSH BKN060 OVC120
     FM291300 20011G20KT P6SM -RA SCT025 OVC040
     FM291500 21011G19KT 4SM -RA BR OVC020
     FM291900 27014G24KT P6SM VCSH OVC028=



000
FTUS41 KILN 282300
TAFDAY
TAF
KDAY 282340Z 2900/2924 15008KT P6SM SCT180 OVC250
     FM290900 17010KT P6SM VCSH BKN060 OVC120
     FM291200 20011G20KT P6SM -RA SCT025 OVC040
     FM291400 20016G23KT 4SM -RA BR SCT010 OVC025
     FM291900 28020G32KT P6SM VCSH OVC025=



000
FTUS41 KILN 282300
TAFILN
TAF
KILN 282340Z 2900/2924 14007KT P6SM OVC250
     FM291100 17010KT P6SM VCSH BKN060 OVC120
     FM291300 20013G20KT P6SM -RA SCT025 OVC040
     FM291500 21015G21KT 4SM -RA BR SCT010 OVC025
     FM291900 28019G30KT P6SM VCSH OVC025=



000
FTUS41 KILN 282300
TAFCMH
TAF
KCMH 282340Z 2900/2924 13005KT P6SM OVC200
     FM291200 15009KT P6SM VCSH SCT025 BKN060 OVC120
      TEMPO 2912/2914 4SM -FZRA OVC025
     FM291500 19011G20KT P6SM -RA SCT025 OVC040
     FM291700 20013G21KT 4SM -RA BR SCT010 OVC025
     FM292000 25017G27KT P6SM VCSH OVC025=



000
FTUS41 KILN 282000 AAA
TAFCVG
TAF AMD
KCVG 282020Z 2820/2924 16007KT P6SM SCT250
     FM282100 13008KT P6SM OVC200
     FM291000 17011KT P6SM BKN060 OVC120
     FM291300 19013G20KT P6SM VCSH SCT025 OVC040
     FM291500 21013G21KT 4SM -RA BR SCT010 OVC020=



000
FTUS41 KILN 281700
TAFILN
TAF
KILN 281739Z 2818/2918 VRB05KT P6SM SCT250
     FM282200 14008KT P6SM OVC200
     FM291100 17013KT P6SM BKN060 OVC120
     FM291400 20013G20KT P6SM VCSH SCT025 OVC040
     FM291600 21015G21KT 4SM -RA BR SCT010 OVC025=



000
FTUS41 KILN 281700
TAFDAY
TAF
KDAY 281739Z 2818/2918 16006KT P6SM SCT250
     FM282000 14010KT P6SM OVC200
     FM290900 17014KT P6SM VCSH BKN060 OVC120
     FM291500 20016G23KT 4SM -RA BR SCT010 OVC025=



000
FTUS41 KILN 281700
TAFLUK
TAF
KLUK 281739Z 2818/2918 15004KT P6SM SCT250
     FM282100 VRB06KT P6SM OVC200
     FM291000 16007KT P6SM BKN060 OVC120
     FM291300 20011G20KT P6SM VCSH SCT025 OVC040
     FM291600 21011G19KT 4SM -SHRA BR OVC020=



000
FTUS41 KILN 281700
TAFLCK
TAF
KLCK 281739Z 2818/2918 15004KT P6SM SCT250
     FM291200 13008KT P6SM BKN060 OVC120
     FM291500 19012G20KT P6SM VCSH SCT025 OVC040
     FM291700 20014G21KT 4SM -RA BR SCT010 OVC025=



000
FTUS41 KILN 281700
TAFCMH
TAF
KCMH 281739Z 2818/2918 VRB06KT P6SM SCT250
     FM291200 14008KT P6SM BKN060 OVC120
     FM291500 19011G20KT P6SM VCSH SCT025 OVC040
     FM291700 20013G21KT 4SM -RA BR SCT010 OVC025=



000
FTUS41 KILN 281700
TAFCVG
TAF
KCVG 281739Z 2818/2924 16007KT P6SM SCT250
     FM282100 13008KT P6SM OVC200
     FM291000 17011KT P6SM BKN060 OVC120
     FM291300 19013G20KT P6SM VCSH SCT025 OVC040
     FM291500 21013G21KT 4SM -RA BR SCT010 OVC020=



000
FTUS41 KILN 281600 AAB
TAFILN
TAF AMD
KILN 281602Z 2816/2912 VRB05KT 4SM BR SKC
     FM281715 14005KT P6SM SCT250
     FM282200 14008KT P6SM OVC200
     FM291000 17010KT P6SM BKN060 OVC120=



000
FTUS41 KILN 281600 AAB
TAFLUK
TAF AMD
KLUK 281601Z 2816/2912 VRB05KT 5SM BR SKC
     FM281700 15004KT P6SM SCT250
     FM282100 12005KT P6SM OVC200
     FM290900 18007KT P6SM BKN060 OVC120=



000
FTUS41 KILN 281600 AAB
TAFDAY
TAF AMD
KDAY 281600Z 2816/2912 VRB04KT 5SM BR SKC
     FM281700 14006KT P6SM SCT250
     FM282000 14010KT P6SM OVC200
     FM290900 27014KT P6SM BKN060 OVC120=



000
FTUS41 KILN 281400 AAB
TAFCVG
TAF AMD
KCVG 281437Z 2815/2918 VRB03KT 5SM BR SKC
     FM281530 14005KT P6SM SCT250
     FM282100 13008KT P6SM OVC200
     FM290900 17011KT P6SM BKN060 OVC120
     FM291300 20011G20KT P6SM VCSH SCT025 OVC040
     FM291600 21011G19KT 5SM -DZ BR OVC020=



000
FTUS41 KILN 281400 AAA
TAFDAY
TAF AMD
KDAY 281403Z 2814/2912 VRB03KT 5SM BR SKC
     FM281515 14006KT P6SM SCT250
     FM282000 14010KT P6SM OVC200
     FM290900 27014KT P6SM BKN060 OVC120=



000
FTUS41 KILN 281300 AAA
TAFLUK
TAF AMD
KLUK 281346Z 2814/2912 00000KT 4SM BR SKC
     FM281500 15004KT P6SM SCT250
     FM282100 12005KT P6SM OVC200
     FM290900 18007KT P6SM BKN060 OVC120=



000
FTUS41 KILN 281300 AAA
TAFILN
TAF AMD
KILN 281346Z 2814/2912 VRB02KT 3SM BR SKC
     FM281500 14005KT P6SM SCT250
     FM282200 14008KT P6SM OVC200
     FM291000 17010KT P6SM BKN060 OVC120=



000
FTUS41 KILN 281300 AAA
TAFCMH
TAF AMD
KCMH 281345Z 2814/2912 VRB02KT 5SM BR SKC
     FM281500 VRB02KT P6SM SKC
     FM281700 16004KT P6SM SCT250
     FM290000 13006KT P6SM OVC200=



000
FTUS41 KILN 281300 AAA
TAFCVG
TAF AMD
KCVG 281342Z 2814/2918 VRB03KT 4SM BR SKC
     FM281500 14005KT P6SM SCT250
     FM282100 13008KT P6SM OVC200
     FM290900 17011KT P6SM BKN060 OVC120
     FM291300 20011KT P6SM VCSH SCT025 OVC040
     FM291600 21011KT P6SM OVC022=



000
FTUS41 KILN 281100
TAFILN
TAF
KILN 281125Z 2812/2912 VRB02KT 5SM BR SKC
     FM281400 14005KT P6SM SCT250
     FM282200 14008KT P6SM OVC200
     FM291000 17010KT P6SM BKN060 OVC120=



000
FTUS41 KILN 281100
TAFDAY
TAF
KDAY 281125Z 2812/2912 VRB03KT 5SM BR SKC
     FM281400 14006KT P6SM SCT250
     FM282000 14010KT P6SM OVC200
     FM290900 27014KT P6SM BKN060 OVC120=



000
FTUS41 KILN 281100
TAFLUK
TAF
KLUK 281125Z 2812/2912 00000KT 4SM BR SKC
     FM281400 15004KT P6SM SCT250
     FM282100 12005KT P6SM OVC200
     FM290900 18007KT P6SM BKN060 OVC120=



000
FTUS41 KILN 281100
TAFLCK
TAF
KLCK 281125Z 2812/2912 VRB02KT P6SM SKC
     FM281700 15004KT P6SM SCT250
     FM290000 13005KT P6SM OVC200=



000
FTUS41 KILN 281100
TAFCMH
TAF
KCMH 281125Z 2812/2912 VRB02KT 5SM BR SKC
     FM281300 VRB02KT P6SM SKC
     FM281700 16004KT P6SM SCT250
     FM290000 13006KT P6SM OVC200=



000
FTUS41 KILN 281100
TAFCVG
TAF
KCVG 281125Z 2812/2918 VRB02KT 5SM BR SKC
     FM281300 14005KT P6SM SCT250
     FM282100 13008KT P6SM OVC200
     FM290900 17011KT P6SM BKN060 OVC120
     FM291300 20011KT P6SM VCSH SCT025 OVC040
     FM291600 21011KT P6SM OVC022=



000
FTUS41 KILN 280900 AAA
TAFCVG
TAF AMD
KCVG 280904Z 2809/2912 VRB02KT 5SM BR SKC
     FM281300 14005KT P6SM SCT250
     FM282100 13008KT P6SM OVC200
     FM290900 17011KT P6SM BKN060 OVC120=



000
FTUS41 KILN 280900 AAA
TAFCMH
TAF AMD
KCMH 280904Z 2809/2906 VRB02KT 5SM BR SKC
     FM281300 VRB02KT P6SM SKC
     FM281600 16004KT P6SM SCT250
     FM282300 13006KT P6SM OVC200=



000
FTUS41 KILN 280900 AAA
TAFLUK
TAF AMD
KLUK 280904Z 2809/2906 00000KT 4SM BR SKC
     FM281400 15004KT P6SM SCT250
     FM282100 12005KT P6SM OVC200=



000
FTUS41 KILN 280900 AAA
TAFLUK
TAF AMD
KLUK 280904Z 2809/2906 00000KT 4SM BR SKC
     FM281400 15004KT P6SM SCT250
     FM282100 12005KT P6SM OVC200=



000
FTUS41 KILN 280900 AAA
TAFCMH
TAF AMD
KCMH 280904Z 2809/2906 VRB02KT 5SM BR SKC
     FM281300 VRB02KT P6SM SKC
     FM281600 16004KT P6SM SCT250
     FM282300 13006KT P6SM OVC200=



000
FTUS41 KILN 280900 AAA
TAFCVG
TAF AMD
KCVG 280904Z 2809/2912 VRB02KT 5SM BR SKC
     FM281300 14005KT P6SM SCT250
     FM282100 13008KT P6SM OVC200
     FM290900 17011KT P6SM BKN060 OVC120=



000
FTUS41 KILN 280500
TAFDAY
TAF
KDAY 280525Z 2806/2906 VRB03KT 5SM BR SKC
     FM281400 14006KT P6SM SCT250
     FM282000 14010KT P6SM OVC200=



000
FTUS41 KILN 280500
TAFILN
TAF
KILN 280525Z 2806/2906 VRB02KT 5SM BR SKC
     FM281400 14005KT P6SM SCT250
     FM282200 14008KT P6SM OVC200=



000
FTUS41 KILN 280500
TAFLUK
TAF
KLUK 280525Z 2806/2906 00000KT P6SM SKC
     FM281300 15004KT P6SM SCT250
     FM282100 12005KT P6SM OVC200=



000
FTUS41 KILN 280500
TAFCMH
TAF
KCMH 280525Z 2806/2906 VRB02KT P6SM SKC
     FM281600 16004KT P6SM SCT250
     FM282300 13006KT P6SM OVC200=



000
FTUS41 KILN 280500
TAFCVG
TAF
KCVG 280525Z 2806/2912 VRB02KT P6SM SKC
     FM281300 14005KT P6SM SCT250
     FM282100 13008KT P6SM OVC200
     FM290900 17011KT P6SM BKN060 OVC120=



000
FTUS41 KILN 280500
TAFLCK
TAF
KLCK 280525Z 2806/2906 VRB02KT P6SM SKC
     FM281600 16004KT P6SM SCT250
     FM282300 14005KT P6SM OVC200=



000
FTUS41 KILN 280300 AAA
TAFDAY
TAF AMD
KDAY 280353Z 2804/2824 VRB03KT 5SM BR SKC
     FM281300 12005KT P6SM SCT250
     FM281800 14008KT P6SM BKN250=



000
FTUS41 KILN 280300 AAA
TAFDAY
TAF AMD
KDAY 280353Z 2804/2824 VRB03KT 5SM BR SKC
     FM281300 12005KT P6SM SCT250
     FM281800 14008KT P6SM BKN250=



000
FTUS41 KILN 272300
TAFDAY
TAF
KDAY 272324Z 2800/2824 34005KT P6SM SKC
     FM281300 12005KT P6SM SCT250
     FM281800 14008KT P6SM BKN250=



000
FTUS41 KILN 272300
TAFLCK
TAF
KLCK 272324Z 2800/2824 33008KT P6SM SCT025
      TEMPO 2800/2801 BKN025
     FM280200 VRB03KT P6SM SKC
     FM281400 13004KT P6SM SCT250
     FM281900 14006KT P6SM BKN250=



000
FTUS41 KILN 272300
TAFLUK
TAF
KLUK 272324Z 2800/2824 VRB03KT P6SM SKC
     FM281300 12004KT P6SM SCT250
     FM282100 14005KT P6SM BKN250=



000
FTUS41 KILN 272300
TAFCVG
TAF
KCVG 272324Z 2800/2906 VRB04KT P6SM SKC
     FM281200 12004KT P6SM SCT250
     FM282100 14007KT P6SM BKN250=



000
FTUS41 KILN 272300
TAFILN
TAF
KILN 272324Z 2800/2824 35005KT P6SM SKC
     FM281200 12004KT P6SM SCT250
     FM281900 14007KT P6SM BKN250=



000
FTUS41 KILN 272300
TAFCMH
TAF
KCMH 272324Z 2800/2824 33008KT P6SM SCT025
     FM280200 VRB03KT P6SM SKC
     FM281400 13004KT P6SM SCT250
     FM281900 14006KT P6SM BKN250=



000
FTUS41 KILN 272100 AAA
TAFCMH
TAF AMD
KCMH 272103Z 2721/2818 33008KT P6SM SCT025
      TEMPO 2721/2801 BKN025
     FM280200 31004KT P6SM SCT025
     FM280800 VRB03KT P6SM SCT250
     FM281400 13004KT P6SM SCT250=



000
FTUS41 KILN 272100 AAA
TAFLCK
TAF AMD
KLCK 272103Z 2721/2818 33008KT P6SM SCT025
      TEMPO 2721/2801 BKN025
     FM280200 31004KT P6SM SCT025
     FM280800 VRB03KT P6SM SCT250
     FM281400 13004KT P6SM SCT250=



000
FTUS41 KILN 272000 AAA
TAFCVG
TAF AMD
KCVG 272058Z 2721/2824 35008KT P6SM SKC
     FM280000 36004KT P6SM SKC
     FM281400 12004KT P6SM SCT250
     FM282100 15007KT P6SM BKN200=



000
FTUS41 KILN 271800 AAA
TAFILN
TAF AMD
KILN 271836Z 2719/2818 03009KT P6SM SCT018 BKN120
      TEMPO 2719/2721 BKN018
     FM272100 36007KT P6SM SCT120
     FM280000 34005KT P6SM SCT150
     FM280600 VRB03KT P6SM SCT250
     FM281300 14005KT P6SM BKN250=



000
FTUS41 KILN 271700
TAFDAY
TAF
KDAY 271738Z 2718/2818 36008KT P6SM SCT120
     FM272300 34006KT P6SM SCT150
     FM280600 VRB03KT P6SM SCT250
     FM281300 14005KT P6SM BKN250=



000
FTUS41 KILN 271700
TAFCVG
TAF
KCVG 271738Z 2718/2824 03007KT P6SM BKN120
     FM272100 35008KT P6SM SCT120
     FM280000 36004KT P6SM SKC
     FM281400 12004KT P6SM SCT250
     FM282100 15007KT P6SM BKN200=



000
FTUS41 KILN 271700
TAFLCK
TAF
KLCK 271738Z 2718/2818 36008KT P6SM -SN BKN028 OVC100
      TEMPO 2718/2720 SCT028 BKN120
     FM272000 33008KT P6SM OVC025
     FM280200 31004KT P6SM SCT025
     FM280800 VRB03KT P6SM SCT250
     FM281400 13004KT P6SM SCT250=



000
FTUS41 KILN 271700
TAFCMH
TAF
KCMH 271738Z 2718/2818 36008KT P6SM -SN BKN028 OVC100
      TEMPO 2718/2720 SCT028 BKN120
     FM272000 33008KT P6SM OVC025
     FM280200 31004KT P6SM SCT025
     FM280800 VRB03KT P6SM SCT250
     FM281400 13004KT P6SM SCT250=



000
FTUS41 KILN 271700
TAFLUK
TAF
KLUK 271738Z 2718/2818 03005KT P6SM BKN120
     FM272100 36007KT P6SM SCT120
     FM280000 VRB03KT P6SM SKC
     FM281400 12004KT P6SM SCT250=



000
FTUS41 KILN 271700
TAFILN
TAF
KILN 271738Z 2718/2818 03009KT P6SM BKN120
     FM272000 36007KT P6SM SCT120
     FM280000 34005KT P6SM SCT150
     FM280600 VRB03KT P6SM SCT250
     FM281300 14005KT P6SM BKN250=



000
FTUS41 KILN 271500 AAB
TAFCMH
TAF AMD
KCMH 271540Z 2716/2812 33006KT P6SM OVC023
      TEMPO 2716/2718 5SM -SN OVC018
     FM271800 33008KT P6SM OVC022
     FM280100 33004KT P6SM SCT018=



000
FTUS41 KILN 271500 AAB
TAFLCK
TAF AMD
KLCK 271540Z 2716/2812 33007KT P6SM OVC025
      TEMPO 2716/2718 5SM -SN OVC018
     FM271800 33008KT P6SM OVC022
     FM280100 33004KT P6SM SCT018=



000
FTUS41 KILN 271400 AAA
TAFCVG
TAF AMD
KCVG 271458Z 2715/2818 04007KT P6SM BKN100
     FM271900 35008KT P6SM SCT025
     FM280000 36004KT P6SM SKC
     FM281400 12004KT P6SM SCT250=



000
FTUS41 KILN 271300 AAA
TAFDAY
TAF AMD
KDAY 271302Z 2713/2812 03004KT P6SM BKN120
      TEMPO 2713/2714 5SM BR
     FM271700 35008KT P6SM SCT022
     FM272300 34006KT P6SM SKC=



000
FTUS41 KILN 271300 AAA
TAFLCK
TAF AMD
KLCK 271301Z 2713/2812 36005KT P6SM BKN023
     FM271700 33008KT P6SM OVC022
     FM280100 33003KT P6SM SCT018=



000
FTUS41 KILN 271300 AAA
TAFCMH
TAF AMD
KCMH 271300Z 2713/2812 36006KT P6SM BKN023
     FM271700 33008KT P6SM OVC022
     FM280100 33004KT P6SM SCT018=



000
FTUS41 KILN 271100
TAFCMH
TAF
KCMH 271135Z 2712/2812 36005KT P6SM SCT020
      TEMPO 2713/2715 BKN020
     FM271700 33008KT P6SM OVC022
     FM280100 33004KT P6SM SCT018=



000
FTUS41 KILN 271100
TAFDAY
TAF
KDAY 271135Z 2712/2812 03004KT P6SM SCT070
     FM271700 35008KT P6SM SCT022
     FM272300 34006KT P6SM SKC=



000
FTUS41 KILN 271100
TAFLCK
TAF
KLCK 271135Z 2712/2812 36005KT P6SM SCT020
      TEMPO 2713/2715 BKN020
     FM271700 33008KT P6SM OVC022
     FM280100 33003KT P6SM SCT018=



000
FTUS41 KILN 271100
TAFCVG
TAF
KCVG 271135Z 2712/2818 05006KT P6SM OVC080
     FM271400 01007KT P6SM SCT080
     FM271900 35008KT P6SM SCT025
     FM280000 36004KT P6SM SKC
     FM281400 12004KT P6SM SCT250=



000
FTUS41 KILN 271100
TAFLUK
TAF
KLUK 271135Z 2712/2812 03004KT P6SM OVC080
     FM271400 01006KT P6SM SCT080
     FM271900 36007KT P6SM SCT030
     FM280000 VRB03KT P6SM SKC=



000
FTUS41 KILN 271100
TAFILN
TAF
KILN 271135Z 2712/2812 03003KT P6SM FEW070
     FM271700 35007KT P6SM SCT022
      TEMPO 2718/2721 BKN022
     FM272300 34005KT P6SM SKC=



000
FTUS41 KILN 270800 AAA
TAFCVG
TAF AMD
KCVG 270858Z 2709/2812 06004KT P6SM SCT025 OVC060
      TEMPO 2709/2712 OVC025
     FM271400 03007KT P6SM SCT050
     FM271900 35008KT P6SM SCT080
     FM280200 36005KT P6SM SKC=



000
FTUS41 KILN 270500
TAFILN
TAF
KILN 270535Z 2706/2806 04003KT P6SM BKN070
     FM271600 36007KT P6SM BKN022
     FM272300 34005KT P6SM SKC=



000
FTUS41 KILN 270500
TAFDAY
TAF
KDAY 270535Z 2706/2806 03004KT P6SM BKN070
     FM271600 35008KT P6SM BKN022
     FM272200 34006KT P6SM SKC=



000
FTUS41 KILN 270500
TAFCVG
TAF
KCVG 270535Z 2706/2812 07004KT P6SM OVC025
     FM271100 03007KT P6SM OVC050
     FM271900 35008KT P6SM SCT080
     FM280200 36005KT P6SM SKC=



000
FTUS41 KILN 270500
TAFLUK
TAF
KLUK 270535Z 2706/2806 03004KT P6SM OVC050
      TEMPO 2706/2710 BKN028
     FM271900 35006KT P6SM SCT080
     FM280200 36003KT P6SM SKC=



000
FTUS41 KILN 270500
TAFLCK
TAF
KLCK 270535Z 2706/2806 34003KT P6SM BKN080
      TEMPO 2706/2707 BKN018
     FM271200 36004KT P6SM BKN018
     FM271700 33007KT P6SM OVC022
     FM280400 33004KT P6SM SKC=



000
FTUS41 KILN 270500
TAFCMH
TAF
KCMH 270535Z 2706/2806 35003KT P6SM BKN080
      TEMPO 2706/2707 BKN018
     FM271200 36005KT P6SM BKN018
     FM271700 33008KT P6SM OVC022
     FM280400 33005KT P6SM SKC=



000
FTUS41 KILN 270300 AAB
TAFCVG
TAF AMD
KCVG 270356Z 2704/2806 32004KT P6SM OVC050
      TEMPO 2704/2706 BKN025
     FM270600 VRB03KT P6SM OVC050
     FM271500 35008KT P6SM BKN080
     FM272000 35006KT P6SM SCT080=



000
FTUS41 KILN 270100 AAA
TAFCVG
TAF AMD
KCVG 270119Z 2701/2806 32004KT P6SM FEW020 BKN200
      TEMPO 2701/2703 BKN025
     FM270300 35004KT P6SM BKN080
     FM270600 VRB03KT P6SM BKN050
     FM271500 35008KT P6SM BKN080
     FM272000 35006KT P6SM SCT080=



000
FTUS41 KILN 270100 AAA
TAFCMH
TAF AMD
KCMH 270106Z 2701/2724 VRB04KT P6SM BKN200
      TEMPO 2701/2702 BKN015
     FM271400 35009KT P6SM BKN025=



000
FTUS41 KILN 270100 AAA
TAFLCK
TAF AMD
KLCK 270106Z 2701/2724 VRB04KT P6SM BKN200
      TEMPO 2701/2702 BKN015
     FM271400 35009KT P6SM BKN025=



000
FTUS41 KILN 262300
TAFCVG
TAF
KCVG 262328Z 2700/2806 32004KT P6SM FEW020 BKN200
     FM270300 35004KT P6SM BKN080
     FM270600 VRB03KT P6SM BKN050
     FM271500 35008KT P6SM BKN080
     FM272000 35006KT P6SM SCT080=



000
FTUS41 KILN 262300
TAFDAY
TAF
KDAY 262328Z 2700/2724 33004KT P6SM BKN200
     FM270300 35004KT P6SM BKN080
     FM271500 35009KT P6SM SCT080=



000
FTUS41 KILN 262300
TAFILN
TAF
KILN 262328Z 2700/2724 33005KT P6SM BKN200
     FM270500 VRB03KT P6SM BKN080
     FM271600 35009KT P6SM SCT080
      TEMPO 2720/2724 BKN025=



000
FTUS41 KILN 262300
TAFLUK
TAF
KLUK 262328Z 2700/2724 36007KT P6SM BKN200
     FM270300 36004KT P6SM BKN080
     FM271500 35008KT P6SM BKN080
     FM272000 35006KT P6SM SCT080=



000
FTUS41 KILN 262300
TAFCMH
TAF
KCMH 262328Z 2700/2724 VRB04KT P6SM BKN200
     FM271400 35009KT P6SM BKN025=



000
FTUS41 KILN 262300
TAFLCK
TAF
KLCK 262328Z 2700/2724 VRB04KT P6SM BKN200
     FM271400 35009KT P6SM BKN025=



000
FTUS41 KILN 262000 AAB
TAFCVG
TAF AMD
KCVG 262057Z 2621/2724 32008KT P6SM SCT020 BKN250
     FM270000 01004KT P6SM FEW020 BKN080
     FM271600 35008KT P6SM FEW025 SCT080=



000
FTUS41 KILN 261900 AAA
TAFILN
TAF AMD
KILN 261912Z 2619/2718 31010KT P6SM SCT015 BKN150
      TEMPO 2619/2621 BKN015
     FM262300 36004KT P6SM SCT020 BKN080
     FM271300 36010KT P6SM SCT020 SCT120=



000
FTUS41 KILN 261900 AAA
TAFCVG
TAF AMD
KCVG 261910Z 2619/2724 32008KT P6SM SCT020 BKN250
      TEMPO 2619/2621 BKN020
     FM262300 01004KT P6SM FEW020 BKN080
     FM271600 35008KT P6SM FEW025 SCT080=



000
FTUS41 KILN 261700
TAFLCK
TAF
KLCK 261739Z 2618/2718 33013KT P6SM SCT015 OVC060
      TEMPO 2618/2621 BKN015 OVC040
     FM270200 33005KT P6SM BKN020 OVC200
     FM271400 34009KT P6SM OVC025=



000
FTUS41 KILN 261700
TAFLUK
TAF
KLUK 261739Z 2618/2718 31008KT P6SM SCT018 BKN250
     FM262300 01003KT P6SM FEW020 BKN080
     FM271600 35008KT P6SM FEW025 SCT080=



000
FTUS41 KILN 261700
TAFCVG
TAF
KCVG 261739Z 2618/2724 33008KT P6SM SCT015 BKN250
     FM262300 01004KT P6SM FEW020 BKN080
     FM271600 35008KT P6SM FEW025 SCT080=



000
FTUS41 KILN 261700
TAFDAY
TAF
KDAY 261739Z 2618/2718 34011KT P6SM SCT025 BKN250
     FM262300 01005KT P6SM SCT015 BKN080
     FM271300 36009KT P6SM SCT018 SCT120=



000
FTUS41 KILN 261700
TAFCMH
TAF
KCMH 261739Z 2618/2718 33013KT P6SM SCT015 OVC060
      TEMPO 2618/2621 BKN015 OVC040
     FM270200 33005KT P6SM BKN020 OVC200
     FM271400 34009KT P6SM OVC025=



000
FTUS41 KILN 261700
TAFILN
TAF
KILN 261739Z 2618/2718 32010KT P6SM SCT022 BKN150
     FM262300 36004KT P6SM SCT020 BKN080
     FM271300 36010KT P6SM SCT020 SCT120=



000
FTUS41 KILN 261500 AAA
TAFCVG
TAF AMD
KCVG 261519Z 2615/2718 33012KT P6SM SCT020 BKN200
      TEMPO 2615/2617 OVC030
     FM261700 33012KT P6SM SCT018 BKN200
     FM262300 01005KT P6SM FEW020 BKN080=



000
FTUS41 KILN 261400 AAA
TAFILN
TAF AMD
KILN 261437Z 2615/2712 33012KT P6SM SCT015
      TEMPO 2615/2616 BKN020
     FM261600 32011KT P6SM SCT022 BKN150
     FM262300 36005KT P6SM SCT015 BKN080=



000
FTUS41 KILN 261400 AAA
TAFLUK
TAF AMD
KLUK 261435Z 2615/2712 34011KT P6SM SCT022 OVC040
     FM261600 32009KT P6SM SCT018 BKN200
     FM262300 01003KT P6SM FEW020 BKN080=



000
FTUS41 KILN 261300 AAB
TAFLCK
TAF AMD
KLCK 261303Z 2613/2712 34012KT P6SM SCT022 OVC040
      TEMPO 2613/2614 5SM -SN OVC022
     FM261700 33011KT P6SM SCT025 BKN150
     FM262300 33005KT P6SM SCT020 BKN200=



000
FTUS41 KILN 261100 AAA
TAFCMH
TAF AMD
KCMH 261159Z 2612/2712 35012KT 3SM -SN OVC022
      TEMPO 2612/2613 2SM -SN OVC015
     FM261400 33012KT P6SM BKN025
     FM261700 33011KT P6SM SCT025 BKN150
     FM262300 33005KT P6SM SCT020 BKN200=



000
FTUS41 KILN 261100 AAA
TAFLCK
TAF AMD
KLCK 261159Z 2612/2712 34012KT 3SM -SN OVC022
      TEMPO 2612/2613 2SM -SN OVC015
     FM261400 33012KT P6SM BKN025
     FM261700 33011KT P6SM SCT025 BKN150
     FM262300 33005KT P6SM SCT020 BKN200=



000
FTUS41 KILN 261100
TAFDAY
TAF
KDAY 261140Z 2612/2712 34013KT P6SM SCT020 BKN150
     FM262300 01005KT P6SM SCT015 BKN080=



000
FTUS41 KILN 261100
TAFCVG
TAF
KCVG 261140Z 2612/2718 34013KT P6SM OVC022
      TEMPO 2612/2614 OVC015
     FM261600 32010KT P6SM SCT018 BKN200
     FM262300 01005KT P6SM FEW020 BKN080=



000
FTUS41 KILN 261100
TAFCMH
TAF
KCMH 261140Z 2612/2712 35012KT 3SM -SN OVC022
     FM261400 33012KT P6SM BKN025
     FM261700 33011KT P6SM SCT025 BKN150
     FM262300 33005KT P6SM SCT020 BKN200=



000
FTUS41 KILN 261100
TAFLUK
TAF
KLUK 261140Z 2612/2712 34012KT P6SM OVC022
      TEMPO 2612/2614 OVC015
     FM261600 32009KT P6SM SCT018 BKN200
     FM262300 01003KT P6SM FEW020 BKN080=



000
FTUS41 KILN 261100
TAFLCK
TAF
KLCK 261140Z 2612/2712 35012KT 3SM -SN OVC022
     FM261400 33012KT P6SM BKN025
     FM261700 33011KT P6SM SCT025 BKN150
     FM262300 33005KT P6SM SCT020 BKN200=



000
FTUS41 KILN 261100
TAFILN
TAF
KILN 261140Z 2612/2712 34013KT 3SM -SN OVC025
     FM261230 33012KT P6SM OVC025
     FM261600 32011KT P6SM SCT022 BKN150
     FM262300 36005KT P6SM SCT015 BKN080=



    US Dept of Commerce
    National Oceanic and Atmospheric Administration
    National Weather Service
    1325 East West Highway
    Silver Spring, MD 20910
    Page Author: NWS Internet Services Team
Disclaimer
Information Quality
Credits
Glossary
Privacy Policy
Freedom of Information Act (FOIA)
About Us
Career Opportunities